Time;durP1;ratioP1;P1;durP2;ratioP2;P2;SDS_P1;SDS_P2;PMS_P1;PMS_P2;Temp;Humidity;BMP_temperature;BMP_pressure;BME280_temperature;BME280_humidity;BME280_pressure;Samples;Min_cycle;Max_cycle;Signal;HPM_P1;HPM_P2
2022/03/11 00:01:48;;;;;;;15.38;8.45;;;;;;;3.77;28.31;95842.88;5005292;28;20221;-65
2022/03/11 00:04:14;;;;;;;13.60;8.60;;;;;;;3.35;28.85;95837.59;5013324;28;20117;-65
2022/03/11 00:06:39;;;;;;;11.98;7.05;;;;;;;3.63;28.20;95833.53;5015439;28;20093;-65
2022/03/11 00:09:05;;;;;;;12.75;7.38;;;;;;;3.32;28.69;95843.94;5007506;28;20529;-66
2022/03/11 00:11:30;;;;;;;14.95;9.70;;;;;;;2.53;31.36;95833.53;5016476;28;20140;-60
2022/03/11 00:13:56;;;;;;;12.75;8.18;;;;;;;3.04;29.63;95840.94;5006137;28;20125;-61
2022/03/11 00:16:22;;;;;;;15.35;8.57;;;;;;;3.02;30.80;95829.69;5016784;28;20094;-65
2022/03/11 00:18:48;;;;;;;11.30;6.97;;;;;;;3.38;29.19;95827.66;5016356;28;20820;-65
2022/03/11 00:21:13;;;;;;;12.50;7.40;;;;;;;3.37;29.12;95831.22;5015734;28;20340;-65
2022/03/11 00:23:40;;;;;;;10.95;6.22;;;;;;;3.60;28.12;95827.69;5016493;28;20098;-64
2022/03/11 00:26:05;;;;;;;12.73;7.90;;;;;;;2.62;31.10;95828.53;5016278;28;20633;-65
2022/03/11 00:28:31;;;;;;;18.70;8.52;;;;;;;2.67;32.05;95823.72;5015644;28;20110;-65
2022/03/11 00:30:56;;;;;;;13.95;8.52;;;;;;;2.79;30.40;95827.13;5014854;28;20090;-65
2022/03/11 00:33:22;;;;;;;13.93;8.10;;;;;;;2.82;30.24;95826.91;5007731;28;20117;-65
2022/03/11 00:35:48;;;;;;;13.70;8.13;;;;;;;3.13;29.90;95829.66;5005564;28;20147;-65
2022/03/11 00:38:13;;;;;;;13.82;9.10;;;;;;;2.84;31.39;95826.78;5011004;28;20125;-61
2022/03/11 00:40:38;;;;;;;11.60;7.32;;;;;;;3.00;30.34;95827.19;5015379;28;20340;-61
2022/03/11 00:43:04;;;;;;;13.18;7.90;;;;;;;3.30;29.51;95830.91;5019785;28;20113;-61
2022/03/11 00:45:29;;;;;;;11.85;6.95;;;;;;;3.22;29.55;95820.19;5019664;28;20110;-62
2022/03/11 00:47:55;;;;;;;15.18;8.57;;;;;;;2.68;33.42;95819.31;5019527;28;20113;-61
2022/03/11 00:50:22;;;;;;;14.15;8.50;;;;;;;2.77;31.14;95822.03;5019640;28;20090;-62
2022/03/11 00:52:47;;;;;;;15.18;7.70;;;;;;;2.78;32.59;95814.97;5019502;28;20094;-62
2022/03/11 00:55:12;;;;;;;12.27;7.95;;;;;;;2.82;31.10;95818.19;5019865;28;20113;-61
2022/03/11 00:57:38;;;;;;;12.77;8.07;;;;;;;2.49;34.02;95816.34;5019082;28;20474;-62
2022/03/11 01:00:04;;;;;;;13.55;7.28;;;;;;;2.80;30.66;95818.31;5018542;28;20106;-61
2022/03/11 01:02:36;;;;;;;14.30;7.70;;;;;;;2.71;31.61;95809.38;5019505;28;20097;-63
2022/03/11 01:05:05;;;;;;;13.13;8.25;;;;;;;2.43;33.84;95802.84;5019267;28;20192;-62
2022/03/11 01:07:31;;;;;;;15.02;7.80;;;;;;;3.08;30.01;95795.00;5017749;28;20216;-62
2022/03/11 01:09:56;;;;;;;13.40;7.70;;;;;;;2.79;31.12;95790.31;5017417;28;20163;-62
2022/03/11 01:12:22;;;;;;;12.07;7.18;;;;;;;2.40;32.18;95785.53;5018641;28;20098;-64
2022/03/11 01:14:47;;;;;;;12.77;7.60;;;;;;;2.30;32.70;95780.19;5009740;28;20085;-65
2022/03/11 01:17:12;;;;;;;12.05;6.90;;;;;;;2.06;35.20;95780.31;5015485;28;22394;-64
2022/03/11 01:19:39;;;;;;;14.98;8.15;;;;;;;2.55;31.94;95775.56;5010784;28;20616;-64
2022/03/11 01:22:04;;;;;;;19.35;7.78;;;;;;;2.83;30.81;95772.50;5010444;28;20420;-64
2022/03/11 01:24:30;;;;;;;12.68;8.25;;;;;;;2.25;31.83;95775.28;5016030;28;20284;-64
2022/03/11 01:26:55;;;;;;;14.73;8.00;;;;;;;2.67;31.19;95772.91;5018030;28;20109;-64
2022/03/11 01:29:21;;;;;;;13.35;8.02;;;;;;;2.43;31.67;95763.44;5014649;28;20351;-64
2022/03/11 01:31:46;;;;;;;16.23;8.40;;;;;;;2.33;32.46;95768.59;5017539;28;20082;-64
2022/03/11 01:34:12;;;;;;;13.60;7.25;;;;;;;2.58;31.42;95770.06;5018009;28;20074;-64
2022/03/11 01:36:38;;;;;;;14.35;8.18;;;;;;;2.86;31.08;95767.00;5017510;28;20576;-64
2022/03/11 01:39:03;;;;;;;13.48;8.57;;;;;;;2.76;30.97;95764.31;5017512;28;20090;-65
2022/03/11 01:41:29;;;;;;;14.25;7.57;;;;;;;2.65;31.30;95763.38;5017362;28;20117;-64
2022/03/11 01:43:59;;;;;;;12.77;8.00;;;;;;;2.60;31.61;95760.28;5017450;28;20628;-65
2022/03/11 01:46:25;;;;;;;14.30;8.77;;;;;;;2.00;32.82;95763.25;5018087;28;20205;-65
2022/03/11 01:48:50;;;;;;;15.00;8.93;;;;;;;2.52;32.33;95762.72;5015696;28;20436;-65
2022/03/11 01:51:16;;;;;;;14.50;8.38;;;;;;;2.36;31.67;95761.31;5017816;28;20074;-65
2022/03/11 01:53:42;;;;;;;14.35;8.80;;;;;;;2.23;32.56;95763.22;5016855;28;20132;-65
2022/03/11 01:56:07;;;;;;;14.93;8.32;;;;;;;1.77;35.15;95758.00;4999146;28;20498;-65
2022/03/11 01:58:33;;;;;;;13.85;7.88;;;;;;;1.66;34.51;95764.09;5017498;28;20078;-65
2022/03/11 02:00:58;;;;;;;16.63;9.00;;;;;;;2.01;33.01;95759.69;4984901;28;20115;-64
2022/03/11 02:03:23;;;;;;;14.25;8.40;;;;;;;1.67;35.49;95764.94;4998255;28;20086;-62
2022/03/11 02:05:49;;;;;;;13.55;8.35;;;;;;;1.78;33.50;95750.97;4978996;28;20103;-61
2022/03/11 02:08:14;;;;;;;14.68;8.70;;;;;;;1.93;32.77;95759.44;4985090;28;20387;-61
2022/03/11 02:10:40;;;;;;;14.52;9.02;;;;;;;1.67;34.63;95757.06;4996287;28;20607;-61
2022/03/11 02:13:06;;;;;;;16.95;8.85;;;;;;;1.29;36.25;95745.91;4997384;28;20113;-62
2022/03/11 02:15:31;;;;;;;14.55;7.53;;;;;;;1.31;35.58;95747.44;4997307;28;20086;-61
2022/03/11 02:17:57;;;;;;;13.20;8.18;;;;;;;1.67;33.98;95746.56;4995533;28;20764;-61
2022/03/11 02:20:22;;;;;;;15.88;8.93;;;;;;;1.70;33.90;95747.16;4996853;28;20098;-63
2022/03/11 02:22:50;;;;;;;14.68;8.25;;;;;;;1.53;36.21;95737.94;4998817;28;20097;-64
2022/03/11 02:25:15;;;;;;;12.63;7.68;;;;;;;1.39;35.79;95743.41;5004059;28;20117;-64
2022/03/11 02:27:42;;;;;;;15.95;9.07;;;;;;;1.70;35.63;95736.66;4999700;28;20136;-63
2022/03/11 02:30:20;;;;;;;14.85;9.48;;;;;;;1.91;33.33;95732.47;4994638;28;20635;-64
2022/03/11 02:32:46;;;;;;;15.13;9.43;;;;;;;1.30;35.47;95737.88;4997928;28;20525;-64
2022/03/11 02:35:11;;;;;;;17.00;8.85;;;;;;;1.61;34.55;95732.13;4999457;28;20073;-64
2022/03/11 02:37:37;;;;;;;13.85;8.85;;;;;;;1.68;33.95;95735.09;4994057;28;20169;-64
2022/03/11 02:40:03;;;;;;;18.52;9.48;;;;;;;1.79;33.43;95726.38;4996617;28;20130;-61
2022/03/11 02:42:29;;;;;;;17.20;9.20;;;;;;;1.76;33.56;95724.84;4992877;28;20571;-64
2022/03/11 02:44:54;;;;;;;14.73;8.73;;;;;;;1.36;34.54;95729.56;4995209;28;20105;-64
2022/03/11 02:47:20;;;;;;;14.63;8.98;;;;;;;1.53;34.11;95719.56;4996863;28;20152;-64
2022/03/11 02:49:45;;;;;;;15.35;9.27;;;;;;;1.45;34.98;95724.56;4986341;28;20737;-64
2022/03/11 02:52:10;;;;;;;17.80;9.15;;;;;;;1.15;35.21;95718.06;4996803;28;20105;-64
2022/03/11 02:54:36;;;;;;;16.83;9.60;;;;;;;1.55;34.23;95716.84;4997412;28;20431;-64
2022/03/11 02:57:01;;;;;;;12.65;7.40;;;;;;;1.26;35.09;95710.22;5001171;28;20686;-64
2022/03/11 02:59:27;;;;;;;18.75;10.25;;;;;;;1.34;35.15;95707.03;5005670;28;20077;-64
2022/03/11 03:01:52;;;;;;;16.35;9.57;;;;;;;1.23;34.68;95711.28;4985115;28;20105;-64
2022/03/11 03:04:18;;;;;;;13.40;8.63;;;;;;;1.28;35.32;95703.09;4985313;28;20109;-64
2022/03/11 03:06:43;;;;;;;16.13;9.48;;;;;;;1.20;35.52;95710.69;4991169;28;20105;-64
2022/03/11 03:09:09;;;;;;;15.90;9.55;;;;;;;1.03;35.59;95691.84;4991705;28;20109;-64
2022/03/11 03:11:34;;;;;;;18.52;9.38;;;;;;;0.93;35.62;95696.94;4996483;28;20078;-65
2022/03/11 03:13:59;;;;;;;17.63;9.68;;;;;;;0.68;36.34;95692.72;4996234;28;20088;-65
2022/03/11 03:16:25;;;;;;;16.30;9.88;;;;;;;0.82;36.68;95695.13;4996235;28;20323;-61
2022/03/11 03:18:51;;;;;;;17.63;10.98;;;;;;;0.98;36.13;95696.59;4994846;28;20565;-64
2022/03/11 03:21:16;;;;;;;18.30;9.55;;;;;;;0.76;35.99;95702.59;4996434;28;20102;-65
2022/03/11 03:23:42;;;;;;;15.73;10.15;;;;;;;0.76;36.17;95692.97;4994498;28;20086;-64
2022/03/11 03:26:07;;;;;;;16.50;10.27;;;;;;;0.75;36.18;95693.09;4996217;28;20121;-65
2022/03/11 03:28:33;;;;;;;19.05;11.20;;;;;;;0.62;36.51;95686.13;4985390;28;20106;-64
2022/03/11 03:30:58;;;;;;;18.75;10.95;;;;;;;0.61;37.07;95692.31;4986218;28;20524;-65
2022/03/11 03:33:23;;;;;;;16.15;10.30;;;;;;;0.63;36.37;95684.34;4996292;28;20101;-64
2022/03/11 03:35:49;;;;;;;19.15;10.93;;;;;;;0.59;36.75;95678.50;4993055;28;20115;-64
2022/03/11 03:38:14;;;;;;;18.88;10.35;;;;;;;0.42;37.45;95675.34;4988278;28;20371;-61
2022/03/11 03:40:40;;;;;;;17.55;11.57;;;;;;;0.48;37.21;95679.28;4995992;28;20565;-65
2022/03/11 03:43:05;;;;;;;18.83;11.50;;;;;;;0.55;36.65;95677.88;4996551;28;20095;-64
2022/03/11 03:45:31;;;;;;;21.25;10.95;;;;;;;0.65;36.32;95680.66;4996085;28;20534;-64
2022/03/11 03:47:56;;;;;;;17.10;10.20;;;;;;;0.06;38.07;95683.16;4995633;28;20405;-65
2022/03/11 03:50:22;;;;;;;20.70;11.77;;;;;;;0.46;37.37;95678.56;4995640;28;20085;-64
2022/03/11 03:52:47;;;;;;;18.85;11.70;;;;;;;0.45;37.27;95687.38;4996840;28;20118;-64
2022/03/11 03:55:13;;;;;;;19.48;10.88;;;;;;;-0.02;38.63;95674.16;4999760;28;20083;-64
2022/03/11 03:57:38;;;;;;;18.60;11.15;;;;;;;0.33;37.49;95682.09;4999892;28;20520;-64
2022/03/11 04:00:05;;;;;;;17.13;10.93;;;;;;;0.30;37.38;95674.44;5000229;28;20717;-64
2022/03/11 04:02:32;;;;;;;16.92;11.32;;;;;;;0.37;36.98;95680.06;4994514;28;20572;-64
2022/03/11 04:04:58;;;;;;;19.60;11.63;;;;;;;0.50;36.56;95676.53;5000284;28;20094;-64
2022/03/11 04:07:23;;;;;;;20.30;10.98;;;;;;;0.36;37.41;95669.69;5000232;28;20093;-64
2022/03/11 04:09:49;;;;;;;21.35;12.20;;;;;;;0.10;37.54;95667.22;4998889;28;20114;-64
2022/03/11 04:12:14;;;;;;;18.45;12.13;;;;;;;0.23;37.57;95677.63;5004540;28;20097;-64
2022/03/11 04:14:40;;;;;;;18.77;10.55;;;;;;;0.14;37.95;95673.91;5019434;28;20085;-64
2022/03/11 04:17:05;;;;;;;23.63;12.45;;;;;;;0.28;37.08;95671.09;5002562;28;20668;-65
2022/03/11 04:19:31;;;;;;;19.17;11.07;;;;;;;0.06;38.06;95669.22;4998685;28;20466;-65
2022/03/11 04:21:56;;;;;;;22.00;12.55;;;;;;;0.18;37.77;95665.69;5018996;28;20074;-65
2022/03/11 04:24:23;;;;;;;20.08;11.88;;;;;;;-0.08;38.47;95664.97;5030631;28;20587;-65
2022/03/11 04:26:48;;;;;;;20.40;12.48;;;;;;;0.11;37.95;95677.59;5021647;28;20535;-65
2022/03/11 04:29:14;;;;;;;20.13;12.80;;;;;;;-0.10;38.72;95665.06;5044806;28;20163;-65
2022/03/11 04:31:40;;;;;;;22.85;13.13;;;;;;;-0.27;38.69;95666.28;5017789;28;20280;-66
2022/03/11 04:34:05;;;;;;;20.80;12.15;;;;;;;-0.44;40.81;95678.78;4993186;28;20411;-65
2022/03/11 04:36:33;;;;;;;19.65;12.10;;;;;;;0.12;37.95;95668.78;5000356;28;20114;-65
2022/03/11 04:39:00;;;;;;;24.35;13.23;;;;;;;-0.27;38.88;95675.94;4993339;28;20114;-65
2022/03/11 04:41:25;;;;;;;21.63;13.60;;;;;;;0.16;37.42;95672.00;5023531;28;20114;-65
2022/03/11 04:43:51;;;;;;;22.25;12.90;;;;;;;0.11;36.97;95687.22;5016664;28;20212;-65
2022/03/11 04:46:16;;;;;;;20.00;12.95;;;;;;;0.37;37.32;95674.00;4989374;28;20083;-65
2022/03/11 04:48:44;;;;;;;20.77;13.00;;;;;;;0.28;37.04;95668.47;5000626;28;20192;-65
2022/03/11 04:51:10;;;;;;;20.02;11.38;;;;;;;-0.19;37.90;95663.13;5021156;28;20393;-65
2022/03/11 04:53:35;;;;;;;19.80;12.30;;;;;;;-0.48;39.37;95673.84;5015989;28;20100;-65
2022/03/11 04:56:00;;;;;;;20.35;11.50;;;;;;;-0.96;40.86;95670.13;5004391;28;20109;-65
2022/03/11 04:58:26;;;;;;;18.33;11.85;;;;;;;-0.58;39.13;95676.28;5022474;28;20366;-65
2022/03/11 05:00:51;;;;;;;19.33;12.82;;;;;;;-0.17;37.71;95676.91;5015767;28;20359;-65
2022/03/11 05:03:17;;;;;;;17.98;11.55;;;;;;;-0.60;38.58;95670.34;5011317;28;20510;-65
2022/03/11 05:05:42;;;;;;;19.15;12.40;;;;;;;-0.54;40.19;95671.69;5002121;28;20573;-65
2022/03/11 05:08:07;;;;;;;18.50;12.18;;;;;;;-0.38;38.50;95679.28;4990767;28;20114;-65
2022/03/11 05:10:33;;;;;;;21.52;12.23;;;;;;;-0.48;38.78;95682.56;5003373;28;20110;-65
2022/03/11 05:12:58;;;;;;;19.88;12.95;;;;;;;-0.14;37.68;95676.72;4996229;28;20161;-65
2022/03/11 05:15:24;;;;;;;21.67;12.57;;;;;;;-0.20;38.00;95688.44;4997483;28;20082;-65
2022/03/11 05:17:51;;;;;;;20.77;13.57;;;;;;;0.01;37.24;95679.19;5012761;28;20114;-65
2022/03/11 05:20:16;;;;;;;25.02;13.25;;;;;;;-0.01;36.70;95670.59;5001717;28;20587;-65
2022/03/11 05:22:42;;;;;;;25.75;13.40;;;;;;;0.07;37.06;95671.72;4992420;28;20090;-65
2022/03/11 05:25:08;;;;;;;21.40;13.00;;;;;;;0.03;37.03;95669.44;4994363;28;20106;-65
2022/03/11 05:27:34;;;;;;;24.80;13.20;;;;;;;-0.05;37.66;95665.59;5002117;28;20110;-65
2022/03/11 05:29:59;;;;;;;21.10;13.60;;;;;;;0.00;37.61;95670.47;4992036;28;20654;-65
2022/03/11 05:32:25;;;;;;;24.23;12.98;;;;;;;0.01;37.00;95668.72;5000877;28;20568;-65
2022/03/11 05:34:50;;;;;;;19.50;12.45;;;;;;;-0.12;37.76;95679.22;5001897;28;20086;-65
2022/03/11 05:37:16;;;;;;;19.80;12.88;;;;;;;-0.34;38.54;95678.97;4995522;28;20160;-65
2022/03/11 05:39:41;;;;;;;25.85;13.75;;;;;;;-0.47;38.72;95686.00;4996870;28;20082;-65
2022/03/11 05:42:07;;;;;;;26.45;14.40;;;;;;;-0.55;38.96;95681.31;5000555;28;20089;-65
2022/03/11 05:44:33;;;;;;;17.23;10.13;;;;;;;-0.51;37.96;95684.56;4993059;28;20137;-65
2022/03/11 05:46:58;;;;;;;20.83;12.60;;;;;;;-0.48;38.69;95674.69;5001940;28;20113;-65
2022/03/11 05:49:24;;;;;;;20.52;12.63;;;;;;;-0.32;38.45;95679.72;5001985;28;20113;-65
2022/03/11 05:51:49;;;;;;;21.63;14.18;;;;;;;-0.15;37.33;95688.13;5000520;28;20122;-65
2022/03/11 05:54:14;;;;;;;20.92;13.23;;;;;;;-0.11;36.97;95680.88;5000953;28;20514;-65
2022/03/11 05:56:40;;;;;;;24.95;13.45;;;;;;;-0.29;37.61;95683.88;4996998;28;20117;-65
2022/03/11 05:59:05;;;;;;;23.98;14.48;;;;;;;-0.34;38.20;95684.19;5002418;28;20121;-65
2022/03/11 06:01:34;;;;;;;22.05;13.98;;;;;;;-0.54;38.66;95674.31;5007892;28;20106;-65
2022/03/11 06:04:01;;;;;;;24.92;14.43;;;;;;;-0.30;37.35;95682.22;5021454;28;20359;-66
2022/03/11 06:06:27;;;;;;;23.95;13.85;;;;;;;-0.86;40.43;95684.25;5020971;28;20504;-66
2022/03/11 06:08:52;;;;;;;24.88;13.88;;;;;;;-1.09;40.63;95691.00;5014446;28;20098;-62
2022/03/11 06:11:18;;;;;;;26.50;14.48;;;;;;;-0.34;38.41;95686.81;5021031;28;20754;-65
2022/03/11 06:13:43;;;;;;;20.33;12.75;;;;;;;-0.91;40.59;95690.75;5020346;28;20614;-65
2022/03/11 06:16:09;;;;;;;20.58;13.13;;;;;;;-0.55;38.01;95681.31;5020126;28;20538;-61
2022/03/11 06:18:34;;;;;;;22.15;13.05;;;;;;;0.05;37.50;95681.47;5021271;28;20088;-66
2022/03/11 06:20:59;;;;;;;22.13;13.18;;;;;;;-0.20;37.06;95688.44;5019592;28;20109;-66
2022/03/11 06:23:25;;;;;;;19.50;12.45;;;;;;;-0.62;39.51;95682.66;5019801;28;20518;-66
2022/03/11 06:25:51;;;;;;;19.73;13.02;;;;;;;-0.42;38.17;95678.66;5017410;28;20414;-66
2022/03/11 06:28:16;;;;;;;21.60;13.25;;;;;;;-0.49;38.66;95687.88;5019272;28;20102;-65
2022/03/11 06:30:44;;;;;;;19.35;13.15;;;;;;;-0.26;37.49;95678.44;5019796;28;20697;-65
2022/03/11 06:33:09;;;;;;;18.75;10.02;;;;;;;-0.65;39.80;95688.13;5014174;28;20102;-65
2022/03/11 06:35:36;;;;;;;18.65;11.52;;;;;;;-0.15;38.77;95679.44;5017249;28;20395;-65
2022/03/11 06:38:01;;;;;;;19.75;13.18;;;;;;;-0.34;39.36;95680.75;5018080;28;20096;-65
2022/03/11 06:40:27;;;;;;;23.02;14.05;;;;;;;0.12;36.69;95681.03;5019102;28;20094;-65
2022/03/11 06:42:53;;;;;;;21.10;13.02;;;;;;;-0.15;38.19;95689.91;5018637;28;20090;-65
2022/03/11 06:45:19;;;;;;;21.73;13.25;;;;;;;-0.07;37.59;95687.56;5016005;28;20097;-65
2022/03/11 06:47:46;;;;;;;18.67;12.75;;;;;;;0.47;35.16;95685.47;5019887;28;20077;-66
2022/03/11 06:50:11;;;;;;;19.80;12.20;;;;;;;0.54;35.48;95675.38;5019866;28;20101;-65
2022/03/11 06:52:37;;;;;;;20.08;13.45;;;;;;;1.00;34.18;95673.72;5020006;28;20598;-66
2022/03/11 06:55:03;;;;;;;20.02;12.88;;;;;;;0.70;37.25;95675.06;5016356;28;20074;-66
2022/03/11 06:57:28;;;;;;;18.42;11.00;;;;;;;0.16;36.64;95672.84;5014335;28;20632;-63
2022/03/11 06:59:54;;;;;;;15.57;10.10;;;;;;;0.20;37.70;95676.91;5019483;28;20147;-65
2022/03/11 07:02:19;;;;;;;22.45;12.80;;;;;;;0.73;34.27;95674.84;5011573;28;20104;-65
2022/03/11 07:04:44;;;;;;;19.98;11.00;;;;;;;0.68;34.31;95677.81;5016753;28;20119;-65
2022/03/11 07:07:10;;;;;;;20.05;12.23;;;;;;;0.83;33.20;95669.75;5010420;28;20332;-65
2022/03/11 07:09:35;;;;;;;18.00;11.77;;;;;;;1.26;32.64;95670.06;5005097;28;20110;-65
2022/03/11 07:12:02;;;;;;;20.20;12.32;;;;;;;1.47;32.12;95664.94;5013191;28;20193;-66
2022/03/11 07:14:35;;;;;;;21.30;12.60;;;;;;;1.56;32.38;95660.75;5017335;28;20093;-66
2022/03/11 07:17:04;;;;;;;21.73;11.82;;;;;;;1.36;32.15;95653.47;5013258;28;20563;-66
2022/03/11 07:19:29;;;;;;;14.73;9.60;;;;;;;1.02;34.31;95656.06;5008909;28;20135;-65
2022/03/11 07:21:55;;;;;;;18.02;10.35;;;;;;;0.70;34.49;95672.44;4988207;28;20099;-66
2022/03/11 07:24:21;;;;;;;20.45;12.80;;;;;;;0.57;35.87;95664.66;4995284;28;20132;-66
2022/03/11 07:26:46;;;;;;;20.08;13.05;;;;;;;0.97;33.80;95663.47;4994240;28;20460;-66
2022/03/11 07:29:12;;;;;;;18.42;11.68;;;;;;;1.23;35.04;95663.25;5009507;28;20458;-66
2022/03/11 07:31:37;;;;;;;20.33;12.35;;;;;;;1.08;36.56;95668.72;5003004;28;20078;-66
2022/03/11 07:34:03;;;;;;;19.02;11.98;;;;;;;1.62;31.45;95668.16;5008716;28;20302;-66
2022/03/11 07:36:28;;;;;;;21.30;13.55;;;;;;;1.80;32.08;95671.13;5021924;28;20105;-66
2022/03/11 07:38:54;;;;;;;19.23;12.10;;;;;;;1.96;30.72;95659.41;5013983;28;20086;-63
2022/03/11 07:41:20;;;;;;;25.02;14.38;;;;;;;2.11;31.86;95663.44;4996717;28;20099;-65
2022/03/11 07:43:46;;;;;;;16.25;10.82;;;;;;;2.29;29.99;95668.16;4988819;28;20608;-66
2022/03/11 07:46:12;;;;;;;19.67;12.30;;;;;;;2.14;30.41;95670.22;4983141;28;20247;-66
2022/03/11 07:48:37;;;;;;;20.52;13.38;;;;;;;2.41;29.67;95674.19;4997702;28;20113;-66
2022/03/11 07:51:03;;;;;;;20.38;11.85;;;;;;;2.40;29.08;95672.53;4999678;28;20253;-66
2022/03/11 07:53:28;;;;;;;23.95;13.70;;;;;;;2.58;30.01;95669.38;4992694;28;20641;-66
2022/03/11 07:55:54;;;;;;;21.23;13.30;;;;;;;2.50;29.94;95670.00;4993402;28;20078;-66
2022/03/11 07:58:21;;;;;;;20.80;13.30;;;;;;;2.86;29.09;95664.44;4998249;28;20083;-66
2022/03/11 08:00:48;;;;;;;25.17;13.57;;;;;;;3.10;28.51;95672.06;4992658;28;20190;-66
2022/03/11 08:03:14;;;;;;;19.30;12.18;;;;;;;3.21;28.07;95672.94;4997503;28;20078;-62
2022/03/11 08:05:39;;;;;;;19.90;12.43;;;;;;;3.42;28.05;95665.88;5018079;28;20132;-66
2022/03/11 08:08:05;;;;;;;22.67;14.85;;;;;;;3.17;29.67;95672.38;5023246;28;20110;-66
2022/03/11 08:10:33;;;;;;;19.98;11.85;;;;;;;3.50;27.36;95681.00;5017726;28;20114;-66
2022/03/11 08:12:59;;;;;;;19.63;10.97;;;;;;;3.40;27.22;95675.69;5007859;28;20206;-65
2022/03/11 08:15:25;;;;;;;19.92;13.55;;;;;;;3.45;30.36;95674.47;5011347;28;20085;-62
2022/03/11 08:17:51;;;;;;;18.17;12.15;;;;;;;3.82;27.24;95681.84;5004215;28;20161;-66
2022/03/11 08:20:17;;;;;;;16.50;10.30;;;;;;;3.93;26.54;95673.84;5015097;28;20633;-65
2022/03/11 08:22:42;;;;;;;22.80;14.80;;;;;;;4.02;28.35;95676.63;5014418;28;20335;-66
2022/03/11 08:25:09;;;;;;;30.50;19.98;;;;;;;4.00;30.74;95660.09;5013657;28;20144;-66
2022/03/11 08:27:35;;;;;;;17.85;12.48;;;;;;;4.44;25.82;95670.28;5017511;28;20088;-66
2022/03/11 08:30:00;;;;;;;18.58;11.00;;;;;;;4.17;27.81;95664.72;5016280;28;20285;-66
2022/03/11 08:32:25;;;;;;;20.95;12.13;;;;;;;4.56;25.78;95661.28;5008527;28;20642;-67
2022/03/11 08:34:53;;;;;;;20.45;12.98;;;;;;;4.49;25.45;95662.78;5012224;28;20078;-66
2022/03/11 08:37:20;;;;;;;18.50;13.23;;;;;;;4.43;26.52;95666.00;5017347;28;21023;-67
2022/03/11 08:39:45;;;;;;;32.97;21.27;;;;;;;4.16;29.58;95673.59;5012787;28;20560;-67
2022/03/11 08:42:11;;;;;;;20.55;11.93;;;;;;;4.31;25.49;95670.56;5014731;28;20073;-67
2022/03/11 08:44:36;;;;;;;32.47;21.05;;;;;;;4.17;27.60;95677.06;5002045;28;20113;-67
2022/03/11 08:47:02;;;;;;;18.77;11.77;;;;;;;4.41;26.14;95674.03;5007492;28;20420;-68
2022/03/11 08:49:27;;;;;;;17.67;11.63;;;;;;;4.68;26.06;95676.97;5013728;28;20346;-67
2022/03/11 08:51:53;;;;;;;18.73;12.10;;;;;;;4.98;25.68;95683.03;5011541;28;20121;-67
2022/03/11 08:54:20;;;;;;;16.40;11.07;;;;;;;4.61;25.51;95670.56;5015796;28;20090;-67
2022/03/11 08:56:45;;;;;;;18.80;11.52;;;;;;;4.49;26.64;95668.06;5001726;28;20637;-67
2022/03/11 08:59:12;;;;;;;21.73;13.05;;;;;;;4.91;25.11;95660.84;5009360;28;20070;-67
2022/03/11 09:01:37;;;;;;;17.58;11.45;;;;;;;4.88;25.37;95656.69;5007097;28;20160;-67
2022/03/11 09:04:03;;;;;;;18.85;11.63;;;;;;;5.12;26.04;95636.94;5008924;28;20172;-67
2022/03/11 09:06:29;;;;;;;21.33;11.82;;;;;;;5.07;25.63;95641.81;5014907;28;20083;-67
2022/03/11 09:08:55;;;;;;;17.98;12.13;;;;;;;4.91;25.37;95642.38;5004566;28;20451;-67
2022/03/11 09:11:20;;;;;;;17.58;11.30;;;;;;;4.94;25.57;95650.00;4988158;28;20506;-67
2022/03/11 09:13:47;;;;;;;17.90;11.80;;;;;;;4.87;25.78;95646.25;4990604;28;20098;-67
2022/03/11 09:16:13;;;;;;;25.33;16.38;;;;;;;5.05;25.85;95649.00;4992889;28;20102;-67
2022/03/11 09:18:38;;;;;;;18.15;12.10;;;;;;;5.11;25.06;95639.72;4995991;28;20092;-63
2022/03/11 09:21:04;;;;;;;36.30;22.42;;;;;;;4.87;28.25;95636.56;4995794;28;20117;-63
2022/03/11 09:23:29;;;;;;;26.52;13.73;;;;;;;5.24;26.20;95637.59;5010750;28;20482;-63
2022/03/11 09:25:55;;;;;;;23.90;15.23;;;;;;;5.40;25.03;95633.50;5026985;28;20311;-66
2022/03/11 09:28:20;;;;;;;16.83;11.38;;;;;;;5.56;24.61;95639.00;5033710;28;20112;-66
2022/03/11 09:30:46;;;;;;;20.23;13.45;;;;;;;5.95;23.86;95643.25;5016102;28;20088;-67
2022/03/11 09:33:11;;;;;;;16.17;11.02;;;;;;;6.18;23.96;95636.72;5009099;28;20113;-67
2022/03/11 09:35:37;;;;;;;18.88;12.27;;;;;;;6.18;23.82;95637.56;5013321;28;20081;-67
2022/03/11 09:38:02;;;;;;;18.13;12.13;;;;;;;6.35;23.61;95632.41;5022595;28;20089;-68
2022/03/11 09:40:28;;;;;;;19.15;11.32;;;;;;;6.23;23.37;95630.00;5018352;28;20113;-68
2022/03/11 09:42:53;;;;;;;16.40;11.43;;;;;;;6.59;23.71;95636.28;5037778;28;20073;-67
2022/03/11 09:45:19;;;;;;;16.70;10.15;;;;;;;6.61;22.95;95631.69;5005252;28;20109;-68
2022/03/11 09:47:45;;;;;;;23.13;15.80;;;;;;;6.76;23.43;95638.09;5009274;28;20086;-67
2022/03/11 09:50:11;;;;;;;26.20;16.60;;;;;;;6.11;24.20;95645.25;5028539;28;20566;-68
2022/03/11 09:52:36;;;;;;;17.10;10.80;;;;;;;6.71;22.71;95643.03;5015698;28;20184;-68
2022/03/11 09:55:02;;;;;;;19.23;12.60;;;;;;;6.42;23.89;95636.13;5025220;28;20612;-67
2022/03/11 09:57:28;;;;;;;28.98;19.95;;;;;;;6.49;24.23;95629.28;5032807;28;20705;-68
2022/03/11 09:59:53;;;;;;;24.58;17.23;;;;;;;6.55;23.84;95617.25;5033525;28;20415;-68
2022/03/11 10:02:19;;;;;;;16.40;10.25;;;;;;;6.79;22.78;95625.53;5010178;28;20133;-67
2022/03/11 10:04:46;;;;;;;33.50;20.63;;;;;;;6.75;22.89;95611.78;5019479;28;20110;-67
2022/03/11 10:07:25;;;;;;;33.10;23.52;;;;;;;6.63;24.97;95619.97;5009043;28;20074;-66
2022/03/11 10:09:50;;;;;;;34.00;21.20;;;;;;;6.86;23.25;95627.41;4996007;28;20106;-66
2022/03/11 10:12:29;;;;;;;23.10;17.17;;;;;;;7.06;25.78;95616.63;4997775;28;20121;-66
2022/03/11 10:14:56;;;;;;;16.05;10.05;;;;;;;7.45;22.35;95623.28;4986779;28;20082;-66
2022/03/11 10:17:22;;;;;;;25.73;16.63;;;;;;;7.52;22.20;95626.97;4994242;28;20179;-66
2022/03/11 10:20:04;;;;;;;13.38;9.93;;;;;;;8.08;21.76;95620.41;4989590;28;20547;-66
2022/03/11 10:22:30;;;;;;;18.05;13.40;;;;;;;8.01;21.84;95625.53;4998878;28;20112;-66
2022/03/11 10:24:55;;;;;;;48.58;31.33;;;;;;;7.68;25.06;95621.94;4987358;28;20596;-66
2022/03/11 10:27:23;;;;;;;17.65;12.15;;;;;;;8.02;22.31;95615.75;4990948;28;20086;-65
2022/03/11 10:29:49;;;;;;;17.43;10.50;;;;;;;8.22;21.76;95618.94;4991840;28;20129;-66
2022/03/11 10:32:21;;;;;;;32.28;20.67;;;;;;;8.03;21.65;95628.03;4980424;28;20121;-66
2022/03/11 10:34:46;;;;;;;16.17;11.15;;;;;;;8.41;21.52;95619.66;4982168;28;20104;-66
2022/03/11 10:37:12;;;;;;;19.23;11.82;;;;;;;8.46;21.64;95622.63;4990958;28;20114;-66
2022/03/11 10:39:39;;;;;;;30.17;21.30;;;;;;;8.48;21.83;95623.31;4995121;28;20093;-66
2022/03/11 10:42:24;;;;;;;16.67;9.95;;;;;;;8.94;20.89;95619.31;4989972;28;20371;-67
2022/03/11 10:45:05;;;;;;;22.52;14.00;;;;;;;8.90;20.74;95623.28;4989123;28;20204;-67
2022/03/11 10:47:35;;;;;;;17.33;11.90;;;;;;;8.72;21.53;95624.31;4979382;28;20118;-69
2022/03/11 10:50:15;;;;;;;19.83;12.00;;;;;;;9.14;20.61;95626.94;4990418;28;20117;-68
2022/03/11 10:52:45;;;;;;;12.48;8.77;;;;;;;9.35;20.43;95622.94;4991449;28;20654;-68
2022/03/11 10:55:17;;;;;;;15.85;10.90;;;;;;;9.21;20.73;95622.63;4980032;28;20093;-68
2022/03/11 10:57:43;;;;;;;14.35;9.45;;;;;;;9.46;20.40;95622.56;4985479;28;20586;-68
2022/03/11 11:00:29;;;;;;;17.80;10.13;;;;;;;9.73;19.77;95623.16;4986811;28;20168;-67
2022/03/11 11:02:56;;;;;;;21.67;15.40;;;;;;;8.95;20.40;95628.97;4986861;28;20093;-63
2022/03/11 11:05:22;;;;;;;16.98;10.45;;;;;;;9.53;21.63;95614.75;4997665;28;20106;-67
2022/03/11 11:07:48;;;;;;;13.18;9.50;;;;;;;9.81;19.65;95620.44;4991541;28;20121;-67
2022/03/11 11:10:15;;;;;;;13.63;9.85;;;;;;;10.16;19.70;95611.34;5015552;28;20164;-66
2022/03/11 11:12:41;;;;;;;17.23;11.55;;;;;;;10.25;19.34;95607.59;5014655;28;20148;-63
2022/03/11 11:15:08;;;;;;;13.18;9.23;;;;;;;10.37;19.41;95597.38;5011789;28;20590;-63
2022/03/11 11:17:36;;;;;;;15.88;9.43;;;;;;;10.52;19.27;95602.78;5004669;28;20334;-66
2022/03/11 11:20:02;;;;;;;14.90;10.18;;;;;;;10.61;19.09;95588.38;5011406;28;20129;-64
2022/03/11 11:22:28;;;;;;;14.18;9.13;;;;;;;10.64;19.20;95589.03;5015419;28;20113;-66